Terminal Aerodrome Forecast
Issued by NWS

Home | Current Version | Previous Version | Text Only | Print | Product List | Glossary On
Versions: 1 2 3 4 5 6 7 8 9 10 11 12 13 14 15 16 17
000
FTUS45 KRIW 260900 AAB
TAFCPR
TAF AMD
KCPR 260901Z 2609/2706 VRB05KT P6SM VCFG SCT004 SCT050
      TEMPO 2610/2614 3SM BR
     FM261400 22006KT P6SM VCFG SCT004 SCT050
     FM261700 23009KT P6SM VCSH SCT050 BKN080
     FM262200 VRB10G18KT P6SM VCTS BKN060CB
     FM270400 24007KT P6SM VCSH BKN050=

USA.gov is the U.S. government's official web portal to all federal, state and local government web resources and services.